首页
METAR-TAF:

METAR-TAF

机场 :

Scampton, 英格兰

纬度: 53-18-27N, 经度: 000-33-03W, 海拔: 62米

当前天气观测

该预报发布于28分钟前的16:50 UTC
风速13节,风向东转东北
温度 20°C
湿度 43%
气压 1024 hPa
能见度10公里或以上

METAR: EGXP 011650Z AUTO 07013KT 9999 // NCD 20/07 Q1024

时间: 18:18 (17:18 UTC)

预报

该预报发布于6小时和43分钟前的10:35 UTC
预报有效从01日的 12点(UTC)到 01日的 18点(UTC)
风速12节,风向东转东北
能见度10公里或以上
1500米以下无云,无积雨云

TAF: EGXP 011035Z 0112/0118 06012KT CAVOK

超过4000个机场的气象观测和天气预报(METAR&TAF报告)。

可查询的气象台以黄色和红色小点在地图上表示。

将鼠标移到小点上方,可查看气象台名称。

然后点击查看天气观测和预报。

如需切换地图:点击带黑十字的绿色按钮放大地图;点击带横线的绿色按钮缩小地图;或者点击绿色箭头查看邻近地区的地图。


METAR-TAF: